Kezdőlap
METAR-TAF:

METAR-TAF

Repülőterek :

Cape Dorset, Nunavut, Kanada

földrajzi szélesség: 64-13N, földrajzi hosszúság: 076-32W, magasság: 51 m

Jelenlegi meteorológiai megfigyelések

A jelentés 1 órával és 0 perccel ezelõtt készült, 19:00 UTC
Északi szél 13 kt
Hőmérséklet -22°C
Páratartalom 76%
Légköri nyomás 1014 hPa
Látótávolság: 14.5 km
Derült ég

METAR: CYTE 171900Z AUTO 36013KT 9SM CLR M22/M25 A2995 RMK SLP153

Idő: 15:00 (20:00 UTC)

Előrejelzés

A jelentés 1 órával és 22 perccel ezelõtt készült, 18:38 UTC
Az előrejelzés 17-én 19 óra UTC és 18-én 07 óra UTC között érvényes
Északi szél 10 kt
Látótávolság: 10 km
Kevés felhő 1200 lábon
17-én 19 óra UTC és 18-én 07 óra UTC között ideiglenes
Látótávolság: 6.4 km
Jégtű, Párásság

TAF: CYTE 171838Z 1719/1807 36010KT P6SM FEW012 TEMPO 1719/1807 4SM IC BR RMK NXT FCST BY 180100Z

Meteorológiai megfigyelések és előrejelzések több, mint 4000 repülőtéren (METAR és TAF jelentéseket).

A térképen piros és sárga pontok jelzik az elérhető meteorológiai állomásokat.

Mozgassa az egeret a pont fölött, hogy megjelenjen az állomás neve.

Azután kattintson az időjárási megfigyelések és előrejelzések megtekintéséhez.

A térkép megváltoztatása: kattintson a fekete keresztel jelölt zöld gombra ráközelítéshez, a vonallal jelölt zöld gombra távolításhoz, vagy a zöld nyilakra a szomszédos térképek eléréséhez.


METAR-TAF: